sensor_id;sensor_type;location;lat;lon;timestamp;pressure;altitude;pressure_sealevel;temperature;humidity
35331;BME280;21441;52.190;20.910;2023-02-14T00:01:17;101657.75;;;4.47;100.00
35331;BME280;21441;52.190;20.910;2023-02-14T00:03:45;101643.69;;;4.32;100.00
35331;BME280;21441;52.190;20.910;2023-02-14T00:06:14;101661.22;;;4.47;100.00
35331;BME280;21441;52.190;20.910;2023-02-14T00:08:41;101666.78;;;4.57;100.00
35331;BME280;21441;52.190;20.910;2023-02-14T00:11:10;101656.22;;;4.57;100.00
35331;BME280;21441;52.190;20.910;2023-02-14T00:13:37;101660.94;;;4.52;100.00
35331;BME280;21441;52.190;20.910;2023-02-14T00:16:26;101670.00;;;4.48;100.00
35331;BME280;21441;52.190;20.910;2023-02-14T00:18:52;101667.66;;;4.43;100.00
35331;BME280;21441;52.190;20.910;2023-02-14T00:21:29;101668.31;;;4.32;100.00
35331;BME280;21441;52.190;20.910;2023-02-14T00:23:57;101671.25;;;4.42;100.00
35331;BME280;21441;52.190;20.910;2023-02-14T00:26:24;101671.50;;;4.52;100.00
35331;BME280;21441;52.190;20.910;2023-02-14T00:28:51;101682.00;;;4.53;100.00
35331;BME280;21441;52.190;20.910;2023-02-14T00:31:19;101684.84;;;4.50;100.00
35331;BME280;21441;52.190;20.910;2023-02-14T00:33:48;101686.59;;;4.50;100.00
35331;BME280;21441;52.190;20.910;2023-02-14T00:36:16;101666.91;;;4.41;100.00
35331;BME280;21441;52.190;20.910;2023-02-14T00:38:46;101688.88;;;4.56;100.00
35331;BME280;21441;52.190;20.910;2023-02-14T00:41:13;101678.69;;;4.50;100.00
35331;BME280;21441;52.190;20.910;2023-02-14T00:43:44;101693.69;;;4.49;100.00
35331;BME280;21441;52.190;20.910;2023-02-14T00:46:12;101688.91;;;4.42;100.00
35331;BME280;21441;52.190;20.910;2023-02-14T00:48:40;101680.22;;;4.40;100.00
35331;BME280;21441;52.190;20.910;2023-02-14T00:51:09;101686.44;;;4.53;100.00
35331;BME280;21441;52.190;20.910;2023-02-14T00:53:37;101694.53;;;4.64;100.00
35331;BME280;21441;52.190;20.910;2023-02-14T00:56:04;101691.50;;;4.56;100.00
35331;BME280;21441;52.190;20.910;2023-02-14T00:58:32;101695.00;;;4.57;100.00
35331;BME280;21441;52.190;20.910;2023-02-14T01:00:59;101688.88;;;4.56;100.00
35331;BME280;21441;52.190;20.910;2023-02-14T01:03:27;101682.19;;;4.50;100.00
35331;BME280;21441;52.190;20.910;2023-02-14T01:05:54;101692.66;;;4.52;100.00
35331;BME280;21441;52.190;20.910;2023-02-14T01:08:24;101687.38;;;4.52;100.00
35331;BME280;21441;52.190;20.910;2023-02-14T01:10:51;101681.91;;;4.41;100.00
35331;BME280;21441;52.190;20.910;2023-02-14T01:13:19;101675.41;;;4.46;100.00
35331;BME280;21441;52.190;20.910;2023-02-14T01:15:49;101680.22;;;4.40;100.00
35331;BME280;21441;52.190;20.910;2023-02-14T01:18:18;101684.72;;;4.52;100.00
35331;BME280;21441;52.190;20.910;2023-02-14T01:20:45;101684.84;;;4.50;100.00
35331;BME280;21441;52.190;20.910;2023-02-14T01:23:13;101680.78;;;4.45;100.00
35331;BME280;21441;52.190;20.910;2023-02-14T01:25:41;101674.56;;;4.46;100.00
35331;BME280;21441;52.190;20.910;2023-02-14T01:28:09;101682.38;;;4.47;100.00
35331;BME280;21441;52.190;20.910;2023-02-14T01:30:36;101677.94;;;4.48;100.00
35331;BME280;21441;52.190;20.910;2023-02-14T01:33:04;101688.31;;;4.37;100.00
35331;BME280;21441;52.190;20.910;2023-02-14T01:35:31;101683.31;;;4.32;100.00
35331;BME280;21441;52.190;20.910;2023-02-14T01:38:03;101686.09;;;4.30;100.00
35331;BME280;21441;52.190;20.910;2023-02-14T01:40:30;101698.13;;;4.34;100.00
35331;BME280;21441;52.190;20.910;2023-02-14T01:42:59;101658.53;;;4.06;100.00
35331;BME280;21441;52.190;20.910;2023-02-14T01:45:29;101691.91;;;4.21;100.00
35331;BME280;21441;52.190;20.910;2023-02-14T01:47:57;101696.72;;;4.14;100.00
35331;BME280;21441;52.190;20.910;2023-02-14T01:50:28;101687.13;;;4.13;100.00
35331;BME280;21441;52.190;20.910;2023-02-14T01:53:01;101676.84;;;4.09;100.00
35331;BME280;21441;52.190;20.910;2023-02-14T01:55:31;101688.50;;;4.19;100.00
35331;BME280;21441;52.190;20.910;2023-02-14T01:58:04;101684.00;;;4.07;100.00
35331;BME280;21441;52.190;20.910;2023-02-14T02:00:32;101699.66;;;4.24;100.00
35331;BME280;21441;52.190;20.910;2023-02-14T02:03:18;101689.47;;;4.18;100.00
35331;BME280;21441;52.190;20.910;2023-02-14T02:05:48;101689.19;;;4.08;100.00
35331;BME280;21441;52.190;20.910;2023-02-14T02:08:17;101688.03;;;4.12;100.00
35331;BME280;21441;52.190;20.910;2023-02-14T02:10:45;101683.03;;;4.08;100.00
35331;BME280;21441;52.190;20.910;2023-02-14T02:13:16;101679.56;;;4.07;100.00
35331;BME280;21441;52.190;20.910;2023-02-14T02:15:52;101678.81;;;4.05;100.00
35331;BME280;21441;52.190;20.910;2023-02-14T02:18:33;101688.06;;;3.98;100.00
35331;BME280;21441;52.190;20.910;2023-02-14T02:24:27;101689.75;;;3.99;100.00
35331;BME280;21441;52.190;20.910;2023-02-14T02:33:54;101699.53;;;3.97;100.00
35331;BME280;21441;52.190;20.910;2023-02-14T02:36:46;101700.03;;;3.89;100.00
35331;BME280;21441;52.190;20.910;2023-02-14T02:39:39;101697.38;;;4.04;100.00
35331;BME280;21441;52.190;20.910;2023-02-14T02:42:20;101706.41;;;3.85;100.00
35331;BME280;21441;52.190;20.910;2023-02-14T02:44:56;101708.03;;;3.88;100.00
35331;BME280;21441;52.190;20.910;2023-02-14T02:47:30;101717.19;;;3.97;100.00
35331;BME280;21441;52.190;20.910;2023-02-14T02:50:04;101707.38;;;3.84;100.00
35331;BME280;21441;52.190;20.910;2023-02-14T02:52:58;101706.22;;;3.88;100.00
35331;BME280;21441;52.190;20.910;2023-02-14T02:55:39;101722.09;;;4.03;100.00
35331;BME280;21441;52.190;20.910;2023-02-14T02:58:29;101703.38;;;3.77;100.00
35331;BME280;21441;52.190;20.910;2023-02-14T03:01:00;101716.63;;;3.91;100.00
35331;BME280;21441;52.190;20.910;2023-02-14T03:03:30;101700.56;;;3.80;100.00
35331;BME280;21441;52.190;20.910;2023-02-14T03:06:16;101728.41;;;4.00;100.00
35331;BME280;21441;52.190;20.910;2023-02-14T03:08:45;101714.53;;;3.97;100.00
35331;BME280;21441;52.190;20.910;2023-02-14T03:11:12;101687.91;;;3.71;100.00
35331;BME280;21441;52.190;20.910;2023-02-14T03:14:00;101724.81;;;3.87;100.00
35331;BME280;21441;52.190;20.910;2023-02-14T03:16:35;101724.34;;;3.80;100.00
35331;BME280;21441;52.190;20.910;2023-02-14T03:19:25;101718.72;;;3.70;100.00
35331;BME280;21441;52.190;20.910;2023-02-14T03:22:19;101714.22;;;3.72;100.00
35331;BME280;21441;52.190;20.910;2023-02-14T03:24:54;101732.16;;;3.82;100.00
35331;BME280;21441;52.190;20.910;2023-02-14T03:27:26;101711.22;;;3.79;100.00
35331;BME280;21441;52.190;20.910;2023-02-14T03:29:58;101730.47;;;3.81;100.00
35331;BME280;21441;52.190;20.910;2023-02-14T03:32:34;101731.84;;;3.72;100.00
35331;BME280;21441;52.190;20.910;2023-02-14T03:35:10;101718.44;;;3.61;100.00
35331;BME280;21441;52.190;20.910;2023-02-14T03:37:44;101727.63;;;3.84;100.00
35331;BME280;21441;52.190;20.910;2023-02-14T03:40:18;101725.19;;;3.95;100.00
35331;BME280;21441;52.190;20.910;2023-02-14T03:42:50;101726.44;;;3.59;100.00
35331;BME280;21441;52.190;20.910;2023-02-14T03:45:29;101739.28;;;3.65;100.00
35331;BME280;21441;52.190;20.910;2023-02-14T03:48:01;101732.19;;;3.66;100.00
35331;BME280;21441;52.190;20.910;2023-02-14T03:50:31;101739.97;;;3.69;100.00
35331;BME280;21441;52.190;20.910;2023-02-14T03:53:00;101725.09;;;3.52;100.00
35331;BME280;21441;52.190;20.910;2023-02-14T03:55:33;101715.94;;;3.74;100.00
35331;BME280;21441;52.190;20.910;2023-02-14T03:58:07;101729.66;;;3.64;100.00
35331;BME280;21441;52.190;20.910;2023-02-14T04:00:39;101734.81;;;3.51;100.00
35331;BME280;21441;52.190;20.910;2023-02-14T04:03:10;101730.88;;;3.59;100.00
35331;BME280;21441;52.190;20.910;2023-02-14T04:05:39;101725.31;;;3.63;100.00
35331;BME280;21441;52.190;20.910;2023-02-14T04:08:11;101723.84;;;3.74;100.00
35331;BME280;21441;52.190;20.910;2023-02-14T04:10:48;101726.50;;;3.58;100.00
35331;BME280;21441;52.190;20.910;2023-02-14T04:13:15;101727.97;;;3.63;100.00
35331;BME280;21441;52.190;20.910;2023-02-14T04:15:43;101720.03;;;3.63;100.00
35331;BME280;21441;52.190;20.910;2023-02-14T04:18:10;101726.09;;;3.65;100.00
35331;BME280;21441;52.190;20.910;2023-02-14T04:20:55;101719.06;;;3.50;100.00
35331;BME280;21441;52.190;20.910;2023-02-14T04:23:22;101715.75;;;3.46;100.00
35331;BME280;21441;52.190;20.910;2023-02-14T04:25:51;101707.81;;;3.46;100.00
35331;BME280;21441;52.190;20.910;2023-02-14T04:28:19;101720.88;;;3.34;100.00
35331;BME280;21441;52.190;20.910;2023-02-14T04:30:46;101711.41;;;3.45;100.00
35331;BME280;21441;52.190;20.910;2023-02-14T04:33:13;101722.59;;;3.35;100.00
35331;BME280;21441;52.190;20.910;2023-02-14T04:35:41;101723.94;;;3.42;100.00
35331;BME280;21441;52.190;20.910;2023-02-14T04:38:08;101731.19;;;3.38;100.00
35331;BME280;21441;52.190;20.910;2023-02-14T04:40:36;101726.00;;;3.37;100.00
35331;BME280;21441;52.190;20.910;2023-02-14T04:43:04;101738.72;;;3.44;100.00
35331;BME280;21441;52.190;20.910;2023-02-14T04:45:33;101744.69;;;3.48;100.00
35331;BME280;21441;52.190;20.910;2023-02-14T04:48:00;101730.91;;;3.43;100.00
35331;BME280;21441;52.190;20.910;2023-02-14T04:50:28;101739.75;;;3.42;100.00
35331;BME280;21441;52.190;20.910;2023-02-14T04:52:55;101745.38;;;3.36;100.00
35331;BME280;21441;52.190;20.910;2023-02-14T04:55:22;101743.13;;;3.29;100.00
35331;BME280;21441;52.190;20.910;2023-02-14T04:57:50;101751.94;;;3.28;100.00
35331;BME280;21441;52.190;20.910;2023-02-14T05:00:20;101747.50;;;3.29;100.00
35331;BME280;21441;52.190;20.910;2023-02-14T05:02:47;101754.78;;;3.25;100.00
35331;BME280;21441;52.190;20.910;2023-02-14T05:05:14;101761.47;;;3.31;100.00
35331;BME280;21441;52.190;20.910;2023-02-14T05:07:42;101763.19;;;3.32;100.00
35331;BME280;21441;52.190;20.910;2023-02-14T05:10:13;101746.84;;;3.25;100.00
35331;BME280;21441;52.190;20.910;2023-02-14T05:12:40;101765.53;;;3.53;100.00
35331;BME280;21441;52.190;20.910;2023-02-14T05:15:08;101766.28;;;3.55;100.00
35331;BME280;21441;52.190;20.910;2023-02-14T05:17:37;101777.69;;;3.55;100.00
35331;BME280;21441;52.190;20.910;2023-02-14T05:20:06;101771.88;;;3.64;100.00
35331;BME280;21441;52.190;20.910;2023-02-14T05:22:33;101772.06;;;3.61;100.00
35331;BME280;21441;52.190;20.910;2023-02-14T05:25:01;101772.34;;;3.57;100.00
35331;BME280;21441;52.190;20.910;2023-02-14T05:27:28;101748.97;;;3.35;100.00
35331;BME280;21441;52.190;20.910;2023-02-14T05:29:56;101772.63;;;3.36;100.00
35331;BME280;21441;52.190;20.910;2023-02-14T05:32:23;101785.88;;;3.50;100.00
35331;BME280;21441;52.190;20.910;2023-02-14T05:34:52;101786.81;;;3.49;100.00
35331;BME280;21441;52.190;20.910;2023-02-14T05:37:19;101792.94;;;3.50;100.00
35331;BME280;21441;52.190;20.910;2023-02-14T05:39:47;101792.94;;;3.50;100.00
35331;BME280;21441;52.190;20.910;2023-02-14T05:42:14;101764.09;;;3.31;100.00
35331;BME280;21441;52.190;20.910;2023-02-14T05:44:45;101781.66;;;3.32;100.00
35331;BME280;21441;52.190;20.910;2023-02-14T05:47:13;101790.91;;;3.39;100.00
35331;BME280;21441;52.190;20.910;2023-02-14T05:49:41;101786.44;;;3.56;100.00
35331;BME280;21441;52.190;20.910;2023-02-14T05:52:09;101778.22;;;3.46;100.00
35331;BME280;21441;52.190;20.910;2023-02-14T05:54:37;101778.03;;;3.49;100.00
35331;BME280;21441;52.190;20.910;2023-02-14T05:57:04;101783.50;;;3.46;100.00
35331;BME280;21441;52.190;20.910;2023-02-14T05:59:31;101784.78;;;3.39;100.00
35331;BME280;21441;52.190;20.910;2023-02-14T06:01:59;101789.13;;;3.40;100.00
35331;BME280;21441;52.190;20.910;2023-02-14T06:04:27;101797.81;;;3.42;100.00
35331;BME280;21441;52.190;20.910;2023-02-14T06:06:54;101795.84;;;3.45;100.00
35331;BME280;21441;52.190;20.910;2023-02-14T06:09:23;101809.47;;;3.38;100.00
35331;BME280;21441;52.190;20.910;2023-02-14T06:11:50;101804.38;;;3.35;100.00
35331;BME280;21441;52.190;20.910;2023-02-14T06:14:18;101802.66;;;3.49;100.00
35331;BME280;21441;52.190;20.910;2023-02-14T06:16:45;101766.66;;;3.33;100.00
35331;BME280;21441;52.190;20.910;2023-02-14T06:19:13;101805.13;;;3.37;100.00
35331;BME280;21441;52.190;20.910;2023-02-14T06:21:40;101801.28;;;3.42;100.00
35331;BME280;21441;52.190;20.910;2023-02-14T06:24:09;101812.72;;;3.43;100.00
35331;BME280;21441;52.190;20.910;2023-02-14T06:26:37;101801.91;;;3.47;100.00
35331;BME280;21441;52.190;20.910;2023-02-14T06:29:05;101809.56;;;3.36;100.00
35331;BME280;21441;52.190;20.910;2023-02-14T06:31:32;101809.81;;;3.32;100.00
35331;BME280;21441;52.190;20.910;2023-02-14T06:34:00;101818.06;;;3.41;100.00
35331;BME280;21441;52.190;20.910;2023-02-14T06:36:27;101818.66;;;3.30;100.00
35331;BME280;21441;52.190;20.910;2023-02-14T06:38:55;101815.44;;;3.41;100.00
35331;BME280;21441;52.190;20.910;2023-02-14T06:41:22;101814.06;;;3.34;100.00
35331;BME280;21441;52.190;20.910;2023-02-14T06:43:51;101824.69;;;3.33;100.00
35331;BME280;21441;52.190;20.910;2023-02-14T06:46:18;101810.75;;;3.30;100.00
35331;BME280;21441;52.190;20.910;2023-02-14T06:48:46;101806.91;;;3.20;100.00
35331;BME280;21441;52.190;20.910;2023-02-14T06:51:13;101814.56;;;3.25;100.00
35331;BME280;21441;52.190;20.910;2023-02-14T06:53:41;101824.97;;;3.28;100.00
35331;BME280;21441;52.190;20.910;2023-02-14T06:56:08;101815.94;;;3.48;100.00
35331;BME280;21441;52.190;20.910;2023-02-14T06:58:36;101823.00;;;3.47;100.00
35331;BME280;21441;52.190;20.910;2023-02-14T07:01:04;101819.44;;;3.33;100.00
35331;BME280;21441;52.190;20.910;2023-02-14T07:03:32;101821.13;;;3.34;100.00
35331;BME280;21441;52.190;20.910;2023-02-14T07:05:59;101827.53;;;3.29;100.00
35331;BME280;21441;52.190;20.910;2023-02-14T07:08:27;101811.34;;;3.20;100.00
35331;BME280;21441;52.190;20.910;2023-02-14T07:10:55;101820.03;;;3.22;100.00
35331;BME280;21441;52.190;20.910;2023-02-14T07:13:23;101819.94;;;3.39;100.00
35331;BME280;21441;52.190;20.910;2023-02-14T07:15:50;101824.53;;;3.36;100.00
35331;BME280;21441;52.190;20.910;2023-02-14T07:18:19;101820.63;;;3.43;100.00
35331;BME280;21441;52.190;20.910;2023-02-14T07:20:47;101823.78;;;3.49;100.00
35331;BME280;21441;52.190;20.910;2023-02-14T07:23:15;101831.50;;;3.37;100.00
35331;BME280;21441;52.190;20.910;2023-02-14T07:25:42;101827.66;;;3.42;100.00
35331;BME280;21441;52.190;20.910;2023-02-14T07:28:10;101847.16;;;3.40;100.00
35331;BME280;21441;52.190;20.910;2023-02-14T07:30:37;101831.09;;;3.28;100.00
35331;BME280;21441;52.190;20.910;2023-02-14T07:33:05;101842.06;;;3.37;100.00
35331;BME280;21441;52.190;20.910;2023-02-14T07:35:34;101841.31;;;3.35;100.00
35331;BME280;21441;52.190;20.910;2023-02-14T07:38:01;101841.03;;;3.39;100.00
35331;BME280;21441;52.190;20.910;2023-02-14T07:40:29;101841.28;;;3.50;100.00
35331;BME280;21441;52.190;20.910;2023-02-14T07:42:57;101829.19;;;3.46;100.00
35331;BME280;21441;52.190;20.910;2023-02-14T07:45:25;101837.22;;;3.45;100.00
35331;BME280;21441;52.190;20.910;2023-02-14T07:47:54;101829.00;;;3.65;100.00
35331;BME280;21441;52.190;20.910;2023-02-14T07:50:23;101831.84;;;3.62;100.00
35331;BME280;21441;52.190;20.910;2023-02-14T07:52:52;101836.34;;;3.60;100.00
35331;BME280;21441;52.190;20.910;2023-02-14T07:55:19;101844.66;;;3.68;100.00
35331;BME280;21441;52.190;20.910;2023-02-14T07:57:48;101855.59;;;3.62;100.00
35331;BME280;21441;52.190;20.910;2023-02-14T08:00:16;101840.53;;;3.48;100.00
35331;BME280;21441;52.190;20.910;2023-02-14T08:02:44;101848.53;;;3.63;100.00
35331;BME280;21441;52.190;20.910;2023-02-14T08:05:11;101858.03;;;3.81;100.00
35331;BME280;21441;52.190;20.910;2023-02-14T08:07:39;101869.34;;;3.83;100.00
35331;BME280;21441;52.190;20.910;2023-02-14T08:10:10;101878.53;;;3.92;100.00
35331;BME280;21441;52.190;20.910;2023-02-14T08:12:37;101874.09;;;3.92;100.00
35331;BME280;21441;52.190;20.910;2023-02-14T08:15:22;101865.94;;;3.81;100.00
35331;BME280;21441;52.190;20.910;2023-02-14T08:18:08;101871.31;;;3.64;100.00
35331;BME280;21441;52.190;20.910;2023-02-14T08:20:35;101890.50;;;3.67;100.00
35331;BME280;21441;52.190;20.910;2023-02-14T08:23:03;101891.59;;;3.63;100.00
35331;BME280;21441;52.190;20.910;2023-02-14T08:25:32;101889.03;;;3.62;100.00
35331;BME280;21441;52.190;20.910;2023-02-14T08:28:01;101892.34;;;3.81;100.00
35331;BME280;21441;52.190;20.910;2023-02-14T08:30:29;101897.38;;;3.70;100.00
35331;BME280;21441;52.190;20.910;2023-02-14T08:32:57;101908.25;;;3.80;100.00
35331;BME280;21441;52.190;20.910;2023-02-14T08:35:24;101907.41;;;3.79;100.00
35331;BME280;21441;52.190;20.910;2023-02-14T08:37:51;101888.50;;;3.71;100.00
35331;BME280;21441;52.190;20.910;2023-02-14T08:40:19;101894.06;;;3.82;100.00
35331;BME280;21441;52.190;20.910;2023-02-14T08:42:48;101892.19;;;3.68;100.00
35331;BME280;21441;52.190;20.910;2023-02-14T08:45:15;101893.03;;;3.53;100.00
35331;BME280;21441;52.190;20.910;2023-02-14T08:47:43;101880.53;;;3.57;100.00
35331;BME280;21441;52.190;20.910;2023-02-14T08:50:12;101892.34;;;3.81;100.00
35331;BME280;21441;52.190;20.910;2023-02-14T08:52:41;101890.13;;;3.89;100.00
35331;BME280;21441;52.190;20.910;2023-02-14T08:55:10;101892.25;;;3.83;100.00
35331;BME280;21441;52.190;20.910;2023-02-14T08:57:38;101886.38;;;3.93;100.00
35331;BME280;21441;52.190;20.910;2023-02-14T09:00:08;101899.47;;;4.11;100.00
35331;BME280;21441;52.190;20.910;2023-02-14T09:02:35;101898.34;;;4.15;100.00
35331;BME280;21441;52.190;20.910;2023-02-14T09:05:03;101903.16;;;4.23;100.00
35331;BME280;21441;52.190;20.910;2023-02-14T09:07:31;101903.25;;;4.21;100.00
35331;BME280;21441;52.190;20.910;2023-02-14T09:09:58;101886.09;;;3.98;100.00
35331;BME280;21441;52.190;20.910;2023-02-14T09:12:26;101904.38;;;4.17;100.00
35331;BME280;21441;52.190;20.910;2023-02-14T09:14:53;101905.50;;;4.13;100.00
35331;BME280;21441;52.190;20.910;2023-02-14T09:17:22;101897.97;;;4.21;100.00
35331;BME280;21441;52.190;20.910;2023-02-14T09:19:49;101904.91;;;4.38;100.00
35331;BME280;21441;52.190;20.910;2023-02-14T09:22:18;101873.25;;;4.22;100.00
35331;BME280;21441;52.190;20.910;2023-02-14T09:24:45;101902.69;;;4.46;100.00
35331;BME280;21441;52.190;20.910;2023-02-14T09:27:13;101913.38;;;4.29;100.00
35331;BME280;21441;52.190;20.910;2023-02-14T09:29:40;101909.78;;;4.30;100.00
35331;BME280;21441;52.190;20.910;2023-02-14T09:32:08;101913.19;;;4.32;100.00
35331;BME280;21441;52.190;20.910;2023-02-14T09:34:37;101903.03;;;4.40;100.00
35331;BME280;21441;52.190;20.910;2023-02-14T09:37:04;101894.00;;;4.44;100.00
35331;BME280;21441;52.190;20.910;2023-02-14T09:39:49;101904.56;;;4.44;100.00
35331;BME280;21441;52.190;20.910;2023-02-14T09:42:32;101909.09;;;4.57;100.00
35331;BME280;21441;52.190;20.910;2023-02-14T09:45:07;101911.72;;;4.42;100.00
35331;BME280;21441;52.190;20.910;2023-02-14T09:47:41;101901.50;;;4.36;100.00
35331;BME280;21441;52.190;20.910;2023-02-14T09:50:18;101914.03;;;4.32;100.00
35331;BME280;21441;52.190;20.910;2023-02-14T09:52:51;101901.72;;;4.47;100.00
35331;BME280;21441;52.190;20.910;2023-02-14T09:55:20;101903.16;;;4.53;100.00
35331;BME280;21441;52.190;20.910;2023-02-14T09:58:04;101884.72;;;4.37;100.00
35331;BME280;21441;52.190;20.910;2023-02-14T10:00:36;101907.78;;;4.49;100.00
35331;BME280;21441;52.190;20.910;2023-02-14T10:03:16;101916.09;;;4.58;100.00
35331;BME280;21441;52.190;20.910;2023-02-14T10:05:56;101909.84;;;4.59;100.00
35331;BME280;21441;52.190;20.910;2023-02-14T10:08:31;101921.03;;;4.64;100.00
35331;BME280;21441;52.190;20.910;2023-02-14T10:11:04;101921.88;;;4.64;100.00
35331;BME280;21441;52.190;20.910;2023-02-14T10:13:38;101916.50;;;4.66;100.00
35331;BME280;21441;52.190;20.910;2023-02-14T10:16:16;101922.91;;;4.62;100.00
35331;BME280;21441;52.190;20.910;2023-02-14T10:18:47;101927.03;;;4.51;100.00
35331;BME280;21441;52.190;20.910;2023-02-14T10:21:22;101899.19;;;4.46;100.00
35331;BME280;21441;52.190;20.910;2023-02-14T10:23:55;101912.50;;;4.59;100.00
35331;BME280;21441;52.190;20.910;2023-02-14T10:26:27;101908.94;;;4.74;100.00
35331;BME280;21441;52.190;20.910;2023-02-14T10:28:56;101904.97;;;4.67;100.00
35331;BME280;21441;52.190;20.910;2023-02-14T10:31:25;101911.09;;;4.67;100.00
35331;BME280;21441;52.190;20.910;2023-02-14T10:33:55;101908.84;;;4.61;100.00
35331;BME280;21441;52.190;20.910;2023-02-14T10:37:01;101898.66;;;4.84;100.00
35331;BME280;21441;52.190;20.910;2023-02-14T10:39:55;101910.78;;;4.88;100.00
35331;BME280;21441;52.190;20.910;2023-02-14T10:42:36;101902.91;;;4.86;100.00
35331;BME280;21441;52.190;20.910;2023-02-14T10:45:15;101909.69;;;4.62;100.00
35331;BME280;21441;52.190;20.910;2023-02-14T10:47:50;101913.69;;;4.83;100.00
35331;BME280;21441;52.190;20.910;2023-02-14T10:50:24;101913.22;;;4.91;100.00
35331;BME280;21441;52.190;20.910;2023-02-14T10:53:03;101906.22;;;5.04;100.00
35331;BME280;21441;52.190;20.910;2023-02-14T10:55:41;101896.31;;;5.08;100.00
35331;BME280;21441;52.190;20.910;2023-02-14T10:58:13;101903.47;;;5.20;100.00
35331;BME280;21441;52.190;20.910;2023-02-14T11:00:51;101900.25;;;5.44;100.00
35331;BME280;21441;52.190;20.910;2023-02-14T11:03:19;101911.75;;;5.57;100.00
35331;BME280;21441;52.190;20.910;2023-02-14T11:05:47;101910.66;;;5.47;100.00
35331;BME280;21441;52.190;20.910;2023-02-14T11:08:23;101911.59;;;5.46;100.00
35331;BME280;21441;52.190;20.910;2023-02-14T11:10:52;101892.41;;;5.13;100.00
35331;BME280;21441;52.190;20.910;2023-02-14T11:13:31;101903.66;;;5.03;100.00
35331;BME280;21441;52.190;20.910;2023-02-14T11:16:01;101902.81;;;5.02;100.00
35331;BME280;21441;52.190;20.910;2023-02-14T11:18:29;101902.66;;;5.05;100.00
35331;BME280;21441;52.190;20.910;2023-02-14T11:21:03;101883.56;;;4.86;100.00
35331;BME280;21441;52.190;20.910;2023-02-14T11:23:33;101903.50;;;5.06;100.00
35331;BME280;21441;52.190;20.910;2023-02-14T11:26:02;101905.47;;;5.16;100.00
35331;BME280;21441;52.190;20.910;2023-02-14T11:28:30;101897.16;;;5.23;100.00
35331;BME280;21441;52.190;20.910;2023-02-14T11:30:58;101899.22;;;5.17;100.00
35331;BME280;21441;52.190;20.910;2023-02-14T11:33:33;101898.56;;;5.28;100.00
35331;BME280;21441;52.190;20.910;2023-02-14T11:36:08;101889.56;;;5.31;100.00
35331;BME280;21441;52.190;20.910;2023-02-14T11:38:39;101888.06;;;5.27;100.00
35331;BME280;21441;52.190;20.910;2023-02-14T11:41:08;101888.13;;;5.40;100.00
35331;BME280;21441;52.190;20.910;2023-02-14T11:43:37;101885.63;;;5.24;100.00
35331;BME280;21441;52.190;20.910;2023-02-14T11:46:13;101879.66;;;5.34;100.00
35331;BME280;21441;52.190;20.910;2023-02-14T11:48:54;101874.75;;;5.28;100.00
35331;BME280;21441;52.190;20.910;2023-02-14T11:51:28;101882.47;;;5.46;100.00
35331;BME280;21441;52.190;20.910;2023-02-14T11:53:58;101881.06;;;5.40;100.00
35331;BME280;21441;52.190;20.910;2023-02-14T11:56:50;101866.50;;;5.33;100.00
35331;BME280;21441;52.190;20.910;2023-02-14T11:59:27;101879.56;;;5.36;100.00
35331;BME280;21441;52.190;20.910;2023-02-14T12:01:59;101879.03;;;5.58;100.00
35331;BME280;21441;52.190;20.910;2023-02-14T12:04:30;101867.19;;;5.64;100.00
35331;BME280;21441;52.190;20.910;2023-02-14T12:07:17;101873.63;;;5.59;100.00
35331;BME280;21441;52.190;20.910;2023-02-14T12:09:47;101867.94;;;5.66;100.00
35331;BME280;21441;52.190;20.910;2023-02-14T12:12:31;101872.72;;;5.46;100.00
35331;BME280;21441;52.190;20.910;2023-02-14T12:15:20;101871.13;;;5.44;100.00
35331;BME280;21441;52.190;20.910;2023-02-14T12:17:53;101859.31;;;5.35;100.00
35331;BME280;21441;52.190;20.910;2023-02-14T12:20:34;101867.19;;;5.64;100.00
35331;BME280;21441;52.190;20.910;2023-02-14T12:23:09;101865.28;;;5.38;100.00
35331;BME280;21441;52.190;20.910;2023-02-14T12:25:45;101868.69;;;5.41;100.00
35331;BME280;21441;52.190;20.910;2023-02-14T12:28:18;101874.16;;;5.37;100.00
35331;BME280;21441;52.190;20.910;2023-02-14T12:30:48;101858.56;;;5.47;100.00
35331;BME280;21441;52.190;20.910;2023-02-14T12:33:18;101873.38;;;5.50;100.00
35331;BME280;21441;52.190;20.910;2023-02-14T12:35:48;101867.88;;;5.53;100.00
35331;BME280;21441;52.190;20.910;2023-02-14T12:38:24;101866.84;;;5.55;100.00
35331;BME280;21441;52.190;20.910;2023-02-14T12:41:04;101860.66;;;5.69;100.00
35331;BME280;21441;52.190;20.910;2023-02-14T12:43:43;101865.69;;;5.87;100.00
35331;BME280;21441;52.190;20.910;2023-02-14T12:46:36;101858.28;;;5.92;100.00
35331;BME280;21441;52.190;20.910;2023-02-14T12:49:30;101865.25;;;5.80;100.00
35331;BME280;21441;52.190;20.910;2023-02-14T12:52:11;101855.84;;;5.62;100.00
35331;BME280;21441;52.190;20.910;2023-02-14T12:54:55;101852.75;;;5.82;100.00
35331;BME280;21441;52.190;20.910;2023-02-14T12:57:33;101857.19;;;5.82;100.00
35331;BME280;21441;52.190;20.910;2023-02-14T13:00:17;101839.56;;;5.68;100.00
35331;BME280;21441;52.190;20.910;2023-02-14T13:05:59;101855.94;;;5.87;100.00
35331;BME280;21441;52.190;20.910;2023-02-14T13:08:43;101848.66;;;5.91;100.00
35331;BME280;21441;52.190;20.910;2023-02-14T13:11:20;101852.53;;;5.99;100.00
35331;BME280;21441;52.190;20.910;2023-02-14T13:13:59;101854.72;;;5.93;100.00
35331;BME280;21441;52.190;20.910;2023-02-14T13:16:35;101853.06;;;5.77;100.00